sensor_id;sensor_type;location;lat;lon;timestamp;temperature;humidity
20081;DHT22;10200;49.232;9.222;2023-03-19T00:02:11;10.50;99.90
20081;DHT22;10200;49.232;9.222;2023-03-19T00:04:37;10.50;99.90
20081;DHT22;10200;49.232;9.222;2023-03-19T00:07:02;10.40;99.90
20081;DHT22;10200;49.232;9.222;2023-03-19T00:09:28;10.40;99.90
20081;DHT22;10200;49.232;9.222;2023-03-19T00:11:54;10.30;99.90
20081;DHT22;10200;49.232;9.222;2023-03-19T00:14:20;10.30;99.90
20081;DHT22;10200;49.232;9.222;2023-03-19T00:16:45;10.30;99.90
20081;DHT22;10200;49.232;9.222;2023-03-19T00:19:11;10.30;99.90
20081;DHT22;10200;49.232;9.222;2023-03-19T00:21:36;10.20;99.90
20081;DHT22;10200;49.232;9.222;2023-03-19T00:24:02;10.10;99.90
20081;DHT22;10200;49.232;9.222;2023-03-19T00:26:29;10.10;99.90
20081;DHT22;10200;49.232;9.222;2023-03-19T00:28:55;10.10;99.90
20081;DHT22;10200;49.232;9.222;2023-03-19T00:31:21;10.10;99.90
20081;DHT22;10200;49.232;9.222;2023-03-19T00:33:47;10.10;99.90
20081;DHT22;10200;49.232;9.222;2023-03-19T00:36:13;10.10;99.90
20081;DHT22;10200;49.232;9.222;2023-03-19T00:38:41;10.10;99.90
20081;DHT22;10200;49.232;9.222;2023-03-19T00:41:07;10.10;99.90
20081;DHT22;10200;49.232;9.222;2023-03-19T00:43:33;10.10;99.90
20081;DHT22;10200;49.232;9.222;2023-03-19T00:45:59;10.10;99.90
20081;DHT22;10200;49.232;9.222;2023-03-19T00:48:25;10.10;99.90
20081;DHT22;10200;49.232;9.222;2023-03-19T00:50:51;10.10;99.90
20081;DHT22;10200;49.232;9.222;2023-03-19T00:53:17;10.10;99.90
20081;DHT22;10200;49.232;9.222;2023-03-19T00:55:43;10.10;99.90
20081;DHT22;10200;49.232;9.222;2023-03-19T00:58:09;10.10;99.90
20081;DHT22;10200;49.232;9.222;2023-03-19T01:00:35;10.10;99.90
20081;DHT22;10200;49.232;9.222;2023-03-19T01:03:02;10.10;99.90
20081;DHT22;10200;49.232;9.222;2023-03-19T01:05:28;10.10;99.90
20081;DHT22;10200;49.232;9.222;2023-03-19T01:07:54;10.20;99.90
20081;DHT22;10200;49.232;9.222;2023-03-19T01:10:21;10.20;99.90
20081;DHT22;10200;49.232;9.222;2023-03-19T01:12:47;10.20;99.90
20081;DHT22;10200;49.232;9.222;2023-03-19T01:15:12;10.20;99.90
20081;DHT22;10200;49.232;9.222;2023-03-19T01:17:38;10.20;99.90
20081;DHT22;10200;49.232;9.222;2023-03-19T01:20:05;10.20;99.90
20081;DHT22;10200;49.232;9.222;2023-03-19T01:22:38;10.10;99.90
20081;DHT22;10200;49.232;9.222;2023-03-19T01:25:05;10.10;99.90
20081;DHT22;10200;49.232;9.222;2023-03-19T01:27:31;10.10;99.90
20081;DHT22;10200;49.232;9.222;2023-03-19T01:29:57;10.10;99.90
20081;DHT22;10200;49.232;9.222;2023-03-19T01:32:23;10.10;99.90
20081;DHT22;10200;49.232;9.222;2023-03-19T01:34:48;10.10;99.90
20081;DHT22;10200;49.232;9.222;2023-03-19T01:37:14;10.20;99.90
20081;DHT22;10200;49.232;9.222;2023-03-19T01:39:39;10.10;99.90
20081;DHT22;10200;49.232;9.222;2023-03-19T01:42:05;10.10;99.90
20081;DHT22;10200;49.232;9.222;2023-03-19T01:44:34;10.10;99.90
20081;DHT22;10200;49.232;9.222;2023-03-19T01:47:03;10.10;99.90
20081;DHT22;10200;49.232;9.222;2023-03-19T01:49:30;10.00;99.90
20081;DHT22;10200;49.232;9.222;2023-03-19T01:51:58;10.10;99.90
20081;DHT22;10200;49.232;9.222;2023-03-19T01:54:25;10.00;99.90
20081;DHT22;10200;49.232;9.222;2023-03-19T01:56:57;10.00;99.90
20081;DHT22;10200;49.232;9.222;2023-03-19T01:59:30;10.10;99.90
20081;DHT22;10200;49.232;9.222;2023-03-19T02:02:12;10.00;99.90
20081;DHT22;10200;49.232;9.222;2023-03-19T02:04:42;10.00;99.90
20081;DHT22;10200;49.232;9.222;2023-03-19T02:07:09;10.00;99.90
20081;DHT22;10200;49.232;9.222;2023-03-19T02:09:36;10.00;99.90
20081;DHT22;10200;49.232;9.222;2023-03-19T02:12:03;10.10;99.90
20081;DHT22;10200;49.232;9.222;2023-03-19T02:14:29;10.20;99.90
20081;DHT22;10200;49.232;9.222;2023-03-19T02:16:55;10.20;99.90
20081;DHT22;10200;49.232;9.222;2023-03-19T02:19:27;10.20;99.90
20081;DHT22;10200;49.232;9.222;2023-03-19T02:21:56;10.20;99.90
20081;DHT22;10200;49.232;9.222;2023-03-19T02:24:27;10.20;99.90
20081;DHT22;10200;49.232;9.222;2023-03-19T02:26:56;10.20;99.90
20081;DHT22;10200;49.232;9.222;2023-03-19T02:29:23;10.10;99.90
20081;DHT22;10200;49.232;9.222;2023-03-19T02:31:48;10.10;99.90
20081;DHT22;10200;49.232;9.222;2023-03-19T02:36:53;10.10;99.90
20081;DHT22;10200;49.232;9.222;2023-03-19T02:39:39;10.10;99.90
20081;DHT22;10200;49.232;9.222;2023-03-19T02:42:06;10.00;99.90
20081;DHT22;10200;49.232;9.222;2023-03-19T02:44:32;10.10;99.90
20081;DHT22;10200;49.232;9.222;2023-03-19T02:46:58;10.00;99.90
20081;DHT22;10200;49.232;9.222;2023-03-19T02:49:23;10.00;99.90
20081;DHT22;10200;49.232;9.222;2023-03-19T02:51:49;10.10;99.90
20081;DHT22;10200;49.232;9.222;2023-03-19T02:54:15;10.00;99.90
20081;DHT22;10200;49.232;9.222;2023-03-19T02:56:41;10.00;99.90
20081;DHT22;10200;49.232;9.222;2023-03-19T02:59:06;10.00;99.90
20081;DHT22;10200;49.232;9.222;2023-03-19T03:01:33;10.00;99.90
20081;DHT22;10200;49.232;9.222;2023-03-19T03:03:59;10.10;99.90
20081;DHT22;10200;49.232;9.222;2023-03-19T03:06:25;10.10;99.90
20081;DHT22;10200;49.232;9.222;2023-03-19T03:08:50;10.10;99.90
20081;DHT22;10200;49.232;9.222;2023-03-19T03:11:16;10.20;99.90
20081;DHT22;10200;49.232;9.222;2023-03-19T03:13:42;10.20;99.90
20081;DHT22;10200;49.232;9.222;2023-03-19T03:16:07;10.20;99.90
20081;DHT22;10200;49.232;9.222;2023-03-19T03:18:33;10.20;99.90
20081;DHT22;10200;49.232;9.222;2023-03-19T03:20:58;10.20;99.90
20081;DHT22;10200;49.232;9.222;2023-03-19T03:23:24;10.20;99.90
20081;DHT22;10200;49.232;9.222;2023-03-19T03:25:50;10.20;99.90
20081;DHT22;10200;49.232;9.222;2023-03-19T03:28:17;10.10;99.90
20081;DHT22;10200;49.232;9.222;2023-03-19T03:30:44;10.00;99.90
20081;DHT22;10200;49.232;9.222;2023-03-19T03:33:10;10.00;99.90
20081;DHT22;10200;49.232;9.222;2023-03-19T03:35:35;9.90;99.90
20081;DHT22;10200;49.232;9.222;2023-03-19T03:38:01;9.90;99.90
20081;DHT22;10200;49.232;9.222;2023-03-19T03:40:28;10.00;99.90
20081;DHT22;10200;49.232;9.222;2023-03-19T03:42:54;10.00;99.90
20081;DHT22;10200;49.232;9.222;2023-03-19T03:45:19;10.00;99.90
20081;DHT22;10200;49.232;9.222;2023-03-19T03:47:45;10.00;99.90
20081;DHT22;10200;49.232;9.222;2023-03-19T03:50:11;10.00;99.90
20081;DHT22;10200;49.232;9.222;2023-03-19T03:52:40;10.00;99.90
20081;DHT22;10200;49.232;9.222;2023-03-19T03:55:07;10.00;99.90
20081;DHT22;10200;49.232;9.222;2023-03-19T03:57:33;10.00;99.90
20081;DHT22;10200;49.232;9.222;2023-03-19T03:59:59;10.00;99.90
20081;DHT22;10200;49.232;9.222;2023-03-19T04:02:25;10.00;99.90
20081;DHT22;10200;49.232;9.222;2023-03-19T04:04:51;10.00;99.90
20081;DHT22;10200;49.232;9.222;2023-03-19T04:07:17;10.00;99.90
20081;DHT22;10200;49.232;9.222;2023-03-19T04:09:43;10.00;99.90
20081;DHT22;10200;49.232;9.222;2023-03-19T04:12:11;9.90;99.90
20081;DHT22;10200;49.232;9.222;2023-03-19T04:14:37;9.90;99.90
20081;DHT22;10200;49.232;9.222;2023-03-19T04:17:02;9.90;99.90
20081;DHT22;10200;49.232;9.222;2023-03-19T04:19:29;9.90;99.90
20081;DHT22;10200;49.232;9.222;2023-03-19T04:21:56;9.90;99.90
20081;DHT22;10200;49.232;9.222;2023-03-19T04:24:21;9.80;99.90
20081;DHT22;10200;49.232;9.222;2023-03-19T04:26:47;9.80;99.90
20081;DHT22;10200;49.232;9.222;2023-03-19T04:29:14;9.80;99.90
20081;DHT22;10200;49.232;9.222;2023-03-19T04:31:40;9.80;99.90
20081;DHT22;10200;49.232;9.222;2023-03-19T04:34:05;9.80;99.90
20081;DHT22;10200;49.232;9.222;2023-03-19T04:36:31;9.80;99.90
20081;DHT22;10200;49.232;9.222;2023-03-19T04:38:57;9.80;99.90
20081;DHT22;10200;49.232;9.222;2023-03-19T04:41:23;9.80;99.90
20081;DHT22;10200;49.232;9.222;2023-03-19T04:43:48;9.80;99.90
20081;DHT22;10200;49.232;9.222;2023-03-19T04:46:14;9.80;99.90
20081;DHT22;10200;49.232;9.222;2023-03-19T04:48:39;9.80;99.90
20081;DHT22;10200;49.232;9.222;2023-03-19T04:51:05;9.80;99.90
20081;DHT22;10200;49.232;9.222;2023-03-19T04:53:34;9.80;99.90
20081;DHT22;10200;49.232;9.222;2023-03-19T04:56:00;9.70;99.90
20081;DHT22;10200;49.232;9.222;2023-03-19T04:58:26;9.70;99.90
20081;DHT22;10200;49.232;9.222;2023-03-19T05:00:52;9.70;99.90
20081;DHT22;10200;49.232;9.222;2023-03-19T05:03:18;9.70;99.90
20081;DHT22;10200;49.232;9.222;2023-03-19T05:05:44;9.70;99.90
20081;DHT22;10200;49.232;9.222;2023-03-19T05:08:10;9.70;99.90
20081;DHT22;10200;49.232;9.222;2023-03-19T05:10:36;9.60;99.90
20081;DHT22;10200;49.232;9.222;2023-03-19T05:13:02;9.60;99.90
20081;DHT22;10200;49.232;9.222;2023-03-19T05:15:28;9.60;99.90
20081;DHT22;10200;49.232;9.222;2023-03-19T05:17:54;9.70;99.90
20081;DHT22;10200;49.232;9.222;2023-03-19T05:20:20;9.60;99.90
20081;DHT22;10200;49.232;9.222;2023-03-19T05:22:45;9.70;99.90
20081;DHT22;10200;49.232;9.222;2023-03-19T05:25:11;9.70;99.90
20081;DHT22;10200;49.232;9.222;2023-03-19T05:27:37;9.70;99.90
20081;DHT22;10200;49.232;9.222;2023-03-19T05:30:04;9.80;99.90
20081;DHT22;10200;49.232;9.222;2023-03-19T05:32:30;9.80;99.90
20081;DHT22;10200;49.232;9.222;2023-03-19T05:34:56;9.80;99.90
20081;DHT22;10200;49.232;9.222;2023-03-19T05:37:22;9.80;99.90
20081;DHT22;10200;49.232;9.222;2023-03-19T05:39:50;9.80;99.90
20081;DHT22;10200;49.232;9.222;2023-03-19T05:42:15;9.80;99.90
20081;DHT22;10200;49.232;9.222;2023-03-19T05:44:41;9.90;99.90
20081;DHT22;10200;49.232;9.222;2023-03-19T05:47:07;9.80;99.90
20081;DHT22;10200;49.232;9.222;2023-03-19T05:49:34;9.80;99.90
20081;DHT22;10200;49.232;9.222;2023-03-19T05:51:59;9.80;99.90
20081;DHT22;10200;49.232;9.222;2023-03-19T05:54:25;9.80;99.90
20081;DHT22;10200;49.232;9.222;2023-03-19T05:56:51;9.70;99.90
20081;DHT22;10200;49.232;9.222;2023-03-19T05:59:17;9.80;99.90
20081;DHT22;10200;49.232;9.222;2023-03-19T06:01:43;9.70;99.90
20081;DHT22;10200;49.232;9.222;2023-03-19T06:04:08;9.70;99.90
20081;DHT22;10200;49.232;9.222;2023-03-19T06:06:34;9.70;99.90
20081;DHT22;10200;49.232;9.222;2023-03-19T06:08:59;9.70;99.90
20081;DHT22;10200;49.232;9.222;2023-03-19T06:11:25;9.70;99.90
20081;DHT22;10200;49.232;9.222;2023-03-19T06:13:51;9.70;99.90
20081;DHT22;10200;49.232;9.222;2023-03-19T06:16:17;9.60;99.90
20081;DHT22;10200;49.232;9.222;2023-03-19T06:18:42;9.70;99.90
20081;DHT22;10200;49.232;9.222;2023-03-19T06:21:08;9.70;99.90
20081;DHT22;10200;49.232;9.222;2023-03-19T06:23:34;9.70;99.90
20081;DHT22;10200;49.232;9.222;2023-03-19T06:26:00;9.80;99.90
20081;DHT22;10200;49.232;9.222;2023-03-19T06:28:26;9.80;99.90
20081;DHT22;10200;49.232;9.222;2023-03-19T06:30:54;9.80;99.90
20081;DHT22;10200;49.232;9.222;2023-03-19T06:33:20;9.90;99.90
20081;DHT22;10200;49.232;9.222;2023-03-19T06:35:47;9.90;99.90
20081;DHT22;10200;49.232;9.222;2023-03-19T06:38:13;10.00;99.90
20081;DHT22;10200;49.232;9.222;2023-03-19T06:40:38;10.00;99.90
20081;DHT22;10200;49.232;9.222;2023-03-19T06:43:04;10.10;99.90
20081;DHT22;10200;49.232;9.222;2023-03-19T06:45:30;10.20;99.90
20081;DHT22;10200;49.232;9.222;2023-03-19T06:47:55;10.30;99.90
20081;DHT22;10200;49.232;9.222;2023-03-19T06:50:22;10.30;99.90
20081;DHT22;10200;49.232;9.222;2023-03-19T06:52:48;10.40;99.90
20081;DHT22;10200;49.232;9.222;2023-03-19T06:55:13;10.50;99.90
20081;DHT22;10200;49.232;9.222;2023-03-19T06:57:39;10.50;99.90
20081;DHT22;10200;49.232;9.222;2023-03-19T07:00:06;10.60;99.90
20081;DHT22;10200;49.232;9.222;2023-03-19T07:02:31;10.60;99.90
20081;DHT22;10200;49.232;9.222;2023-03-19T07:04:58;10.60;99.90
20081;DHT22;10200;49.232;9.222;2023-03-19T07:07:23;10.60;99.90
20081;DHT22;10200;49.232;9.222;2023-03-19T07:09:49;10.60;99.90
20081;DHT22;10200;49.232;9.222;2023-03-19T07:12:14;10.60;99.90
20081;DHT22;10200;49.232;9.222;2023-03-19T07:14:40;10.70;99.90
20081;DHT22;10200;49.232;9.222;2023-03-19T07:17:06;10.60;99.90
20081;DHT22;10200;49.232;9.222;2023-03-19T07:19:32;10.60;99.90
20081;DHT22;10200;49.232;9.222;2023-03-19T07:21:57;10.60;99.90
20081;DHT22;10200;49.232;9.222;2023-03-19T07:24:23;10.70;99.90
20081;DHT22;10200;49.232;9.222;2023-03-19T07:26:48;10.70;99.90
20081;DHT22;10200;49.232;9.222;2023-03-19T07:29:14;10.70;99.90
20081;DHT22;10200;49.232;9.222;2023-03-19T07:31:39;10.70;99.90
20081;DHT22;10200;49.232;9.222;2023-03-19T07:34:05;10.70;99.90
20081;DHT22;10200;49.232;9.222;2023-03-19T07:36:31;10.70;99.90
20081;DHT22;10200;49.232;9.222;2023-03-19T07:38:57;10.70;99.90
20081;DHT22;10200;49.232;9.222;2023-03-19T07:41:22;10.70;99.90
20081;DHT22;10200;49.232;9.222;2023-03-19T07:43:48;10.70;99.90
20081;DHT22;10200;49.232;9.222;2023-03-19T07:46:14;10.70;99.90
20081;DHT22;10200;49.232;9.222;2023-03-19T07:48:42;10.70;99.90
20081;DHT22;10200;49.232;9.222;2023-03-19T07:51:08;10.70;99.90
20081;DHT22;10200;49.232;9.222;2023-03-19T07:53:33;10.80;99.90
20081;DHT22;10200;49.232;9.222;2023-03-19T07:55:59;10.80;99.90
20081;DHT22;10200;49.232;9.222;2023-03-19T07:58:24;10.90;99.90
20081;DHT22;10200;49.232;9.222;2023-03-19T08:00:52;11.00;99.90
20081;DHT22;10200;49.232;9.222;2023-03-19T08:03:18;11.10;99.90
20081;DHT22;10200;49.232;9.222;2023-03-19T08:05:43;11.10;99.90
20081;DHT22;10200;49.232;9.222;2023-03-19T08:08:09;11.20;99.90
20081;DHT22;10200;49.232;9.222;2023-03-19T08:10:35;11.30;99.90
20081;DHT22;10200;49.232;9.222;2023-03-19T08:13:00;11.40;99.90
20081;DHT22;10200;49.232;9.222;2023-03-19T08:15:26;11.40;99.90
20081;DHT22;10200;49.232;9.222;2023-03-19T08:18:02;11.40;99.90
20081;DHT22;10200;49.232;9.222;2023-03-19T08:20:29;11.50;99.90
20081;DHT22;10200;49.232;9.222;2023-03-19T08:22:55;11.60;99.90
20081;DHT22;10200;49.232;9.222;2023-03-19T08:25:22;11.70;99.90
20081;DHT22;10200;49.232;9.222;2023-03-19T08:27:48;11.70;99.90
20081;DHT22;10200;49.232;9.222;2023-03-19T08:30:14;11.80;99.90
20081;DHT22;10200;49.232;9.222;2023-03-19T08:32:40;11.80;99.90
20081;DHT22;10200;49.232;9.222;2023-03-19T08:35:06;11.90;99.90
20081;DHT22;10200;49.232;9.222;2023-03-19T08:37:32;12.10;99.90
20081;DHT22;10200;49.232;9.222;2023-03-19T08:39:57;12.30;99.90
20081;DHT22;10200;49.232;9.222;2023-03-19T08:42:23;12.70;99.90
20081;DHT22;10200;49.232;9.222;2023-03-19T08:44:49;13.10;99.90
20081;DHT22;10200;49.232;9.222;2023-03-19T08:47:15;13.20;99.90
20081;DHT22;10200;49.232;9.222;2023-03-19T08:49:41;13.50;99.90
20081;DHT22;10200;49.232;9.222;2023-03-19T08:52:07;13.70;99.90
20081;DHT22;10200;49.232;9.222;2023-03-19T08:54:32;13.90;99.90
20081;DHT22;10200;49.232;9.222;2023-03-19T08:57:01;14.40;99.90
20081;DHT22;10200;49.232;9.222;2023-03-19T08:59:27;15.30;99.90
20081;DHT22;10200;49.232;9.222;2023-03-19T09:01:53;15.60;99.90
20081;DHT22;10200;49.232;9.222;2023-03-19T09:04:20;15.80;99.90
20081;DHT22;10200;49.232;9.222;2023-03-19T09:06:47;15.80;99.90
20081;DHT22;10200;49.232;9.222;2023-03-19T09:09:17;15.80;99.90
20081;DHT22;10200;49.232;9.222;2023-03-19T09:11:43;15.80;99.90
20081;DHT22;10200;49.232;9.222;2023-03-19T09:14:09;15.90;99.90
20081;DHT22;10200;49.232;9.222;2023-03-19T09:16:36;16.20;99.90
20081;DHT22;10200;49.232;9.222;2023-03-19T09:19:01;16.20;99.90
20081;DHT22;10200;49.232;9.222;2023-03-19T09:21:27;16.50;99.90
20081;DHT22;10200;49.232;9.222;2023-03-19T09:23:53;16.70;99.90
20081;DHT22;10200;49.232;9.222;2023-03-19T09:26:18;16.70;98.70
20081;DHT22;10200;49.232;9.222;2023-03-19T09:28:44;16.80;98.30
20081;DHT22;10200;49.232;9.222;2023-03-19T09:31:10;17.20;97.20
20081;DHT22;10200;49.232;9.222;2023-03-19T09:33:36;17.60;95.30
20081;DHT22;10200;49.232;9.222;2023-03-19T09:36:01;17.90;92.80
20081;DHT22;10200;49.232;9.222;2023-03-19T09:38:27;17.90;91.30
20081;DHT22;10200;49.232;9.222;2023-03-19T09:44:10;18.30;90.70
20081;DHT22;10200;49.232;9.222;2023-03-19T09:46:44;18.60;88.60
20081;DHT22;10200;49.232;9.222;2023-03-19T09:49:27;18.70;82.50
20081;DHT22;10200;49.232;9.222;2023-03-19T09:54:52;18.90;79.00
20081;DHT22;10200;49.232;9.222;2023-03-19T09:57:19;18.80;77.30
20081;DHT22;10200;49.232;9.222;2023-03-19T09:59:45;18.70;76.40
20081;DHT22;10200;49.232;9.222;2023-03-19T10:02:35;18.50;76.00
20081;DHT22;10200;49.232;9.222;2023-03-19T10:08:09;17.90;75.10
20081;DHT22;10200;49.232;9.222;2023-03-19T10:10:59;18.00;75.80
20081;DHT22;10200;49.232;9.222;2023-03-19T10:16:24;18.30;72.20
20081;DHT22;10200;49.232;9.222;2023-03-19T10:18:53;18.30;71.90
20081;DHT22;10200;49.232;9.222;2023-03-19T10:21:41;18.30;71.40
20081;DHT22;10200;49.232;9.222;2023-03-19T10:24:21;18.40;72.40
20081;DHT22;10200;49.232;9.222;2023-03-19T10:26:50;18.30;71.00
20081;DHT22;10200;49.232;9.222;2023-03-19T10:29:21;18.30;71.10
20081;DHT22;10200;49.232;9.222;2023-03-19T10:31:57;18.30;70.40
20081;DHT22;10200;49.232;9.222;2023-03-19T10:34:32;18.10;70.40
20081;DHT22;10200;49.232;9.222;2023-03-19T10:39:37;18.00;71.20
20081;DHT22;10200;49.232;9.222;2023-03-19T10:42:12;18.00;71.30
20081;DHT22;10200;49.232;9.222;2023-03-19T10:47:15;17.80;70.00
20081;DHT22;10200;49.232;9.222;2023-03-19T10:49:42;17.70;69.80
20081;DHT22;10200;49.232;9.222;2023-03-19T10:52:37;17.60;70.10
20081;DHT22;10200;49.232;9.222;2023-03-19T10:55:32;17.60;71.00
20081;DHT22;10200;49.232;9.222;2023-03-19T10:58:17;17.70;70.90
20081;DHT22;10200;49.232;9.222;2023-03-19T11:00:48;17.60;70.00
20081;DHT22;10200;49.232;9.222;2023-03-19T11:06:04;17.50;69.20
20081;DHT22;10200;49.232;9.222;2023-03-19T11:08:34;17.50;69.60
20081;DHT22;10200;49.232;9.222;2023-03-19T11:11:00;17.50;67.70
20081;DHT22;10200;49.232;9.222;2023-03-19T11:13:26;17.40;68.80
20081;DHT22;10200;49.232;9.222;2023-03-19T11:15:56;17.50;69.20
20081;DHT22;10200;49.232;9.222;2023-03-19T11:18:26;17.70;69.70
20081;DHT22;10200;49.232;9.222;2023-03-19T11:20:59;17.70;68.70
20081;DHT22;10200;49.232;9.222;2023-03-19T11:23:29;17.70;67.50
20081;DHT22;10200;49.232;9.222;2023-03-19T11:25:59;17.80;66.90
20081;DHT22;10200;49.232;9.222;2023-03-19T11:28:28;17.80;66.80
20081;DHT22;10200;49.232;9.222;2023-03-19T11:39:36;17.70;64.00
20081;DHT22;10200;49.232;9.222;2023-03-19T11:53:41;18.00;62.10
20081;DHT22;10200;49.232;9.222;2023-03-19T12:10:49;18.40;61.20
20081;DHT22;10200;49.232;9.222;2023-03-19T12:21:55;18.60;60.90
20081;DHT22;10200;49.232;9.222;2023-03-19T12:30:39;18.50;62.50
20081;DHT22;10200;49.232;9.222;2023-03-19T12:35:42;18.50;61.60
20081;DHT22;10200;49.232;9.222;2023-03-19T12:38:22;18.50;62.50
20081;DHT22;10200;49.232;9.222;2023-03-19T12:41:10;18.50;62.40
20081;DHT22;10200;49.232;9.222;2023-03-19T12:51:54;18.20;62.10
20081;DHT22;10200;49.232;9.222;2023-03-19T12:54:34;18.20;63.30
20081;DHT22;10200;49.232;9.222;2023-03-19T12:57:17;18.40;63.50
20081;DHT22;10200;49.232;9.222;2023-03-19T13:00:39;18.50;62.40
20081;DHT22;10200;49.232;9.222;2023-03-19T13:03:11;18.40;62.10
20081;DHT22;10200;49.232;9.222;2023-03-19T13:05:40;18.30;61.80
20081;DHT22;10200;49.232;9.222;2023-03-19T13:10:41;18.30;61.30
20081;DHT22;10200;49.232;9.222;2023-03-19T13:16:02;18.00;62.10
20081;DHT22;10200;49.232;9.222;2023-03-19T13:18:48;17.90;62.30
20081;DHT22;10200;49.232;9.222;2023-03-19T13:24:43;17.80;63.60
20081;DHT22;10200;49.232;9.222;2023-03-19T13:26:44;17.80;64.30
20081;DHT22;10200;49.232;9.222;2023-03-19T13:29:19;17.90;63.90
20081;DHT22;10200;49.232;9.222;2023-03-19T13:31:46;18.00;63.60
20081;DHT22;10200;49.232;9.222;2023-03-19T13:34:25;18.00;63.20
20081;DHT22;10200;49.232;9.222;2023-03-19T13:37:06;17.90;63.60
20081;DHT22;10200;49.232;9.222;2023-03-19T13:39:36;17.80;63.20
20081;DHT22;10200;49.232;9.222;2023-03-19T13:42:07;17.80;63.50
20081;DHT22;10200;49.232;9.222;2023-03-19T13:44:53;17.80;63.80
20081;DHT22;10200;49.232;9.222;2023-03-19T13:53:18;17.70;64.20
20081;DHT22;10200;49.232;9.222;2023-03-19T13:55:56;17.70;64.70
20081;DHT22;10200;49.232;9.222;2023-03-19T13:58:25;17.70;65.40
20081;DHT22;10200;49.232;9.222;2023-03-19T14:01:56;17.60;65.40
20081;DHT22;10200;49.232;9.222;2023-03-19T14:03:58;17.50;65.60
20081;DHT22;10200;49.232;9.222;2023-03-19T14:06:39;17.50;65.80
20081;DHT22;10200;49.232;9.222;2023-03-19T14:11:54;17.30;66.10
20081;DHT22;10200;49.232;9.222;2023-03-19T14:14:22;17.30;66.40
20081;DHT22;10200;49.232;9.222;2023-03-19T14:16:50;17.30;66.30
20081;DHT22;10200;49.232;9.222;2023-03-19T14:19:18;17.20;66.20
20081;DHT22;10200;49.232;9.222;2023-03-19T14:22:06;17.30;66.20
20081;DHT22;10200;49.232;9.222;2023-03-19T14:24:36;17.30;65.80
20081;DHT22;10200;49.232;9.222;2023-03-19T14:27:17;17.30;66.10
20081;DHT22;10200;49.232;9.222;2023-03-19T14:29:46;17.30;66.00
20081;DHT22;10200;49.232;9.222;2023-03-19T14:32:18;17.20;66.40
20081;DHT22;10200;49.232;9.222;2023-03-19T14:34:48;17.20;66.30
20081;DHT22;10200;49.232;9.222;2023-03-19T14:37:21;17.20;66.70
20081;DHT22;10200;49.232;9.222;2023-03-19T14:40:02;17.10;66.50
20081;DHT22;10200;49.232;9.222;2023-03-19T14:42:40;17.10;66.90
20081;DHT22;10200;49.232;9.222;2023-03-19T14:45:33;17.00;67.10
20081;DHT22;10200;49.232;9.222;2023-03-19T14:48:07;17.00;67.60
20081;DHT22;10200;49.232;9.222;2023-03-19T14:56:04;16.70;68.70
20081;DHT22;10200;49.232;9.222;2023-03-19T14:58:34;16.60;69.50
20081;DHT22;10200;49.232;9.222;2023-03-19T15:01:00;16.50;69.90
20081;DHT22;10200;49.232;9.222;2023-03-19T15:03:34;16.50;70.70
20081;DHT22;10200;49.232;9.222;2023-03-19T15:06:05;16.40;72.40
20081;DHT22;10200;49.232;9.222;2023-03-19T15:08:34;16.40;74.40
20081;DHT22;10200;49.232;9.222;2023-03-19T15:18:58;15.90;78.20
20081;DHT22;10200;49.232;9.222;2023-03-19T15:21:24;15.80;79.40
20081;DHT22;10200;49.232;9.222;2023-03-19T15:23:50;15.70;80.40
20081;DHT22;10200;49.232;9.222;2023-03-19T15:26:31;15.70;82.40
20081;DHT22;10200;49.232;9.222;2023-03-19T15:28:57;15.50;82.80
20081;DHT22;10200;49.232;9.222;2023-03-19T15:31:23;15.40;83.90
20081;DHT22;10200;49.232;9.222;2023-03-19T15:34:22;15.30;84.70
20081;DHT22;10200;49.232;9.222;2023-03-19T15:36:52;15.30;85.90
20081;DHT22;10200;49.232;9.222;2023-03-19T15:39:22;15.20;86.50
20081;DHT22;10200;49.232;9.222;2023-03-19T15:41:51;15.30;87.40
20081;DHT22;10200;49.232;9.222;2023-03-19T15:44:43;15.20;87.50
20081;DHT22;10200;49.232;9.222;2023-03-19T15:47:11;15.20;87.50
20081;DHT22;10200;49.232;9.222;2023-03-19T15:49:43;15.20;87.80
20081;DHT22;10200;49.232;9.222;2023-03-19T15:52:13;15.20;88.00
20081;DHT22;10200;49.232;9.222;2023-03-19T15:54:40;15.30;88.20
20081;DHT22;10200;49.232;9.222;2023-03-19T15:57:07;15.40;87.60
20081;DHT22;10200;49.232;9.222;2023-03-19T15:59:34;15.40;86.80
20081;DHT22;10200;49.232;9.222;2023-03-19T16:02:03;15.40;86.80
20081;DHT22;10200;49.232;9.222;2023-03-19T16:04:36;15.40;86.50
20081;DHT22;10200;49.232;9.222;2023-03-19T16:07:01;15.30;85.70
20081;DHT22;10200;49.232;9.222;2023-03-19T16:09:32;15.30;85.90
20081;DHT22;10200;49.232;9.222;2023-03-19T16:11:59;15.40;85.40
20081;DHT22;10200;49.232;9.222;2023-03-19T16:14:40;15.40;86.00
20081;DHT22;10200;49.232;9.222;2023-03-19T16:17:15;15.20;85.50
20081;DHT22;10200;49.232;9.222;2023-03-19T16:19:54;15.20;85.70
20081;DHT22;10200;49.232;9.222;2023-03-19T16:22:27;15.20;85.10
20081;DHT22;10200;49.232;9.222;2023-03-19T16:24:54;15.10;85.20
20081;DHT22;10200;49.232;9.222;2023-03-19T16:27:37;15.10;86.50
20081;DHT22;10200;49.232;9.222;2023-03-19T16:30:22;15.10;86.00
20081;DHT22;10200;49.232;9.222;2023-03-19T16:33:05;15.00;86.00
20081;DHT22;10200;49.232;9.222;2023-03-19T16:35:32;15.00;86.80
20081;DHT22;10200;49.232;9.222;2023-03-19T16:38:26;14.90;87.50
20081;DHT22;10200;49.232;9.222;2023-03-19T16:41:17;14.90;87.60
20081;DHT22;10200;49.232;9.222;2023-03-19T16:43:47;14.80;88.70
20081;DHT22;10200;49.232;9.222;2023-03-19T16:46:13;14.60;89.60
20081;DHT22;10200;49.232;9.222;2023-03-19T16:48:41;14.60;90.30
20081;DHT22;10200;49.232;9.222;2023-03-19T16:51:18;14.50;90.80
20081;DHT22;10200;49.232;9.222;2023-03-19T16:53:46;14.50;91.50
20081;DHT22;10200;49.232;9.222;2023-03-19T16:56:13;14.40;92.10
20081;DHT22;10200;49.232;9.222;2023-03-19T16:58:42;14.40;92.70
20081;DHT22;10200;49.232;9.222;2023-03-19T17:01:15;14.30;93.50
20081;DHT22;10200;49.232;9.222;2023-03-19T17:03:44;14.30;94.10
20081;DHT22;10200;49.232;9.222;2023-03-19T17:06:11;14.30;94.90
20081;DHT22;10200;49.232;9.222;2023-03-19T17:08:38;14.30;95.80
20081;DHT22;10200;49.232;9.222;2023-03-19T17:11:04;14.20;96.70
20081;DHT22;10200;49.232;9.222;2023-03-19T17:13:31;14.20;97.40
20081;DHT22;10200;49.232;9.222;2023-03-19T17:16:00;14.10;98.40
20081;DHT22;10200;49.232;9.222;2023-03-19T17:18:30;14.10;99.20
20081;DHT22;10200;49.232;9.222;2023-03-19T17:21:08;14.10;99.90
20081;DHT22;10200;49.232;9.222;2023-03-19T17:23:35;14.00;99.90
20081;DHT22;10200;49.232;9.222;2023-03-19T17:28:43;13.90;99.90
20081;DHT22;10200;49.232;9.222;2023-03-19T17:31:20;13.80;99.90
20081;DHT22;10200;49.232;9.222;2023-03-19T17:33:47;13.80;99.90
20081;DHT22;10200;49.232;9.222;2023-03-19T17:36:13;13.80;99.90
20081;DHT22;10200;49.232;9.222;2023-03-19T17:38:40;13.80;99.90
20081;DHT22;10200;49.232;9.222;2023-03-19T17:41:14;13.70;99.90